sensor_id;sensor_type;location;lat;lon;timestamp;temperature;humidity
17726;DHT22;8983;53.156;17.960;2023-11-21T00:00:06;2.80;99.90
17726;DHT22;8983;53.156;17.960;2023-11-21T00:02:40;2.80;99.90
17726;DHT22;8983;53.156;17.960;2023-11-21T00:05:10;2.70;99.90
17726;DHT22;8983;53.156;17.960;2023-11-21T00:07:41;2.80;99.90
17726;DHT22;8983;53.156;17.960;2023-11-21T00:10:11;2.70;99.90
17726;DHT22;8983;53.156;17.960;2023-11-21T00:12:41;2.80;99.90
17726;DHT22;8983;53.156;17.960;2023-11-21T00:15:10;2.70;99.90
17726;DHT22;8983;53.156;17.960;2023-11-21T00:17:39;2.80;99.90
17726;DHT22;8983;53.156;17.960;2023-11-21T00:20:08;2.80;99.90
17726;DHT22;8983;53.156;17.960;2023-11-21T00:22:41;2.80;99.90
17726;DHT22;8983;53.156;17.960;2023-11-21T00:25:10;2.80;99.90
17726;DHT22;8983;53.156;17.960;2023-11-21T00:27:38;2.80;99.90
17726;DHT22;8983;53.156;17.960;2023-11-21T00:30:07;2.70;99.90
17726;DHT22;8983;53.156;17.960;2023-11-21T00:32:37;2.80;99.90
17726;DHT22;8983;53.156;17.960;2023-11-21T00:35:06;2.70;99.90
17726;DHT22;8983;53.156;17.960;2023-11-21T00:37:34;2.70;99.90
17726;DHT22;8983;53.156;17.960;2023-11-21T00:40:05;2.70;99.90
17726;DHT22;8983;53.156;17.960;2023-11-21T00:42:34;2.70;99.90
17726;DHT22;8983;53.156;17.960;2023-11-21T00:45:02;2.60;99.90
17726;DHT22;8983;53.156;17.960;2023-11-21T00:47:31;2.60;99.90
17726;DHT22;8983;53.156;17.960;2023-11-21T00:49:59;2.60;99.90
17726;DHT22;8983;53.156;17.960;2023-11-21T00:52:28;2.50;99.90
17726;DHT22;8983;53.156;17.960;2023-11-21T00:54:56;2.60;99.90
17726;DHT22;8983;53.156;17.960;2023-11-21T00:57:28;2.60;99.90
17726;DHT22;8983;53.156;17.960;2023-11-21T00:59:56;2.60;99.90
17726;DHT22;8983;53.156;17.960;2023-11-21T01:02:25;2.60;99.90
17726;DHT22;8983;53.156;17.960;2023-11-21T01:04:53;2.70;99.90
17726;DHT22;8983;53.156;17.960;2023-11-21T01:07:21;2.50;99.90
17726;DHT22;8983;53.156;17.960;2023-11-21T01:09:50;2.50;99.90
17726;DHT22;8983;53.156;17.960;2023-11-21T01:12:18;2.50;99.90
17726;DHT22;8983;53.156;17.960;2023-11-21T01:14:47;2.50;99.90
17726;DHT22;8983;53.156;17.960;2023-11-21T01:17:15;2.50;99.90
17726;DHT22;8983;53.156;17.960;2023-11-21T01:19:45;2.50;99.90
17726;DHT22;8983;53.156;17.960;2023-11-21T01:22:13;2.50;99.90
17726;DHT22;8983;53.156;17.960;2023-11-21T01:24:43;2.50;99.90
17726;DHT22;8983;53.156;17.960;2023-11-21T01:27:11;2.50;99.90
17726;DHT22;8983;53.156;17.960;2023-11-21T01:29:39;2.50;99.90
17726;DHT22;8983;53.156;17.960;2023-11-21T01:32:08;2.50;99.90
17726;DHT22;8983;53.156;17.960;2023-11-21T01:34:37;2.50;99.90
17726;DHT22;8983;53.156;17.960;2023-11-21T01:37:05;2.70;99.90
17726;DHT22;8983;53.156;17.960;2023-11-21T01:39:34;2.50;99.90
17726;DHT22;8983;53.156;17.960;2023-11-21T01:42:02;2.50;99.90
17726;DHT22;8983;53.156;17.960;2023-11-21T01:44:30;2.50;99.90
17726;DHT22;8983;53.156;17.960;2023-11-21T01:46:58;2.50;99.90
17726;DHT22;8983;53.156;17.960;2023-11-21T01:49:33;2.50;99.90
17726;DHT22;8983;53.156;17.960;2023-11-21T01:52:02;2.40;99.90
17726;DHT22;8983;53.156;17.960;2023-11-21T01:54:31;2.50;99.90
17726;DHT22;8983;53.156;17.960;2023-11-21T01:57:00;2.50;99.90
17726;DHT22;8983;53.156;17.960;2023-11-21T01:59:34;2.40;99.90
17726;DHT22;8983;53.156;17.960;2023-11-21T02:02:04;2.50;99.90
17726;DHT22;8983;53.156;17.960;2023-11-21T02:04:35;2.40;99.90
17726;DHT22;8983;53.156;17.960;2023-11-21T02:07:04;2.40;99.90
17726;DHT22;8983;53.156;17.960;2023-11-21T02:09:32;2.40;99.90
17726;DHT22;8983;53.156;17.960;2023-11-21T02:12:02;2.40;99.90
17726;DHT22;8983;53.156;17.960;2023-11-21T02:14:31;2.60;99.90
17726;DHT22;8983;53.156;17.960;2023-11-21T02:16:59;2.40;99.90
17726;DHT22;8983;53.156;17.960;2023-11-21T02:19:27;2.40;99.90
17726;DHT22;8983;53.156;17.960;2023-11-21T02:21:59;2.40;99.90
17726;DHT22;8983;53.156;17.960;2023-11-21T02:24:32;2.40;99.90
17726;DHT22;8983;53.156;17.960;2023-11-21T02:27:00;2.30;99.90
17726;DHT22;8983;53.156;17.960;2023-11-21T02:29:28;2.40;99.90
17726;DHT22;8983;53.156;17.960;2023-11-21T02:31:56;2.40;99.90
17726;DHT22;8983;53.156;17.960;2023-11-21T02:34:25;2.30;99.90
17726;DHT22;8983;53.156;17.960;2023-11-21T02:36:53;2.30;99.90
17726;DHT22;8983;53.156;17.960;2023-11-21T02:39:22;2.30;99.90
17726;DHT22;8983;53.156;17.960;2023-11-21T02:41:53;2.30;99.90
17726;DHT22;8983;53.156;17.960;2023-11-21T02:44:21;2.20;99.90
17726;DHT22;8983;53.156;17.960;2023-11-21T02:46:49;2.30;99.90
17726;DHT22;8983;53.156;17.960;2023-11-21T02:49:17;2.20;99.90
17726;DHT22;8983;53.156;17.960;2023-11-21T02:51:45;2.20;99.90
17726;DHT22;8983;53.156;17.960;2023-11-21T02:54:13;2.20;99.90
17726;DHT22;8983;53.156;17.960;2023-11-21T02:56:46;2.20;99.90
17726;DHT22;8983;53.156;17.960;2023-11-21T02:59:15;2.20;99.90
17726;DHT22;8983;53.156;17.960;2023-11-21T03:01:44;2.20;99.90
17726;DHT22;8983;53.156;17.960;2023-11-21T03:04:12;2.00;99.90
17726;DHT22;8983;53.156;17.960;2023-11-21T03:06:45;2.20;99.90
17726;DHT22;8983;53.156;17.960;2023-11-21T03:09:13;2.20;99.90
17726;DHT22;8983;53.156;17.960;2023-11-21T03:11:41;2.20;99.90
17726;DHT22;8983;53.156;17.960;2023-11-21T03:14:09;2.20;99.90
17726;DHT22;8983;53.156;17.960;2023-11-21T03:16:39;2.20;99.90
17726;DHT22;8983;53.156;17.960;2023-11-21T03:19:08;2.10;99.90
17726;DHT22;8983;53.156;17.960;2023-11-21T03:21:36;2.20;99.90
17726;DHT22;8983;53.156;17.960;2023-11-21T03:24:05;2.20;99.90
17726;DHT22;8983;53.156;17.960;2023-11-21T03:26:34;2.10;99.90
17726;DHT22;8983;53.156;17.960;2023-11-21T03:29:04;2.10;99.90
17726;DHT22;8983;53.156;17.960;2023-11-21T03:31:32;2.10;99.90
17726;DHT22;8983;53.156;17.960;2023-11-21T03:34:02;2.10;99.90
17726;DHT22;8983;53.156;17.960;2023-11-21T03:36:30;2.10;99.90
17726;DHT22;8983;53.156;17.960;2023-11-21T03:38:58;2.10;99.90
17726;DHT22;8983;53.156;17.960;2023-11-21T03:41:26;2.10;99.90
17726;DHT22;8983;53.156;17.960;2023-11-21T03:43:55;2.10;99.90
17726;DHT22;8983;53.156;17.960;2023-11-21T03:46:23;2.10;99.90
17726;DHT22;8983;53.156;17.960;2023-11-21T03:48:51;2.20;99.90
17726;DHT22;8983;53.156;17.960;2023-11-21T03:51:20;2.10;99.90
17726;DHT22;8983;53.156;17.960;2023-11-21T03:53:49;2.10;99.90
17726;DHT22;8983;53.156;17.960;2023-11-21T03:56:17;2.10;99.90
17726;DHT22;8983;53.156;17.960;2023-11-21T03:58:45;2.10;99.90
17726;DHT22;8983;53.156;17.960;2023-11-21T04:01:19;2.10;99.90
17726;DHT22;8983;53.156;17.960;2023-11-21T04:03:49;2.10;99.90
17726;DHT22;8983;53.156;17.960;2023-11-21T04:06:17;2.10;99.90
17726;DHT22;8983;53.156;17.960;2023-11-21T04:08:47;2.10;99.90
17726;DHT22;8983;53.156;17.960;2023-11-21T04:11:15;2.10;99.90
17726;DHT22;8983;53.156;17.960;2023-11-21T04:13:43;2.00;99.90
17726;DHT22;8983;53.156;17.960;2023-11-21T04:16:13;2.00;99.90
17726;DHT22;8983;53.156;17.960;2023-11-21T04:18:42;2.00;99.90
17726;DHT22;8983;53.156;17.960;2023-11-21T04:21:10;2.00;99.90
17726;DHT22;8983;53.156;17.960;2023-11-21T04:23:38;2.00;99.90
17726;DHT22;8983;53.156;17.960;2023-11-21T04:26:08;2.00;99.90
17726;DHT22;8983;53.156;17.960;2023-11-21T04:28:36;2.10;99.90
17726;DHT22;8983;53.156;17.960;2023-11-21T04:31:04;2.00;99.90
17726;DHT22;8983;53.156;17.960;2023-11-21T04:33:34;1.90;99.90
17726;DHT22;8983;53.156;17.960;2023-11-21T04:36:02;1.90;99.90
17726;DHT22;8983;53.156;17.960;2023-11-21T04:38:30;1.90;99.90
17726;DHT22;8983;53.156;17.960;2023-11-21T04:40:59;1.90;99.90
17726;DHT22;8983;53.156;17.960;2023-11-21T04:43:31;1.90;99.90
17726;DHT22;8983;53.156;17.960;2023-11-21T04:45:59;1.90;99.90
17726;DHT22;8983;53.156;17.960;2023-11-21T04:48:28;1.80;99.90
17726;DHT22;8983;53.156;17.960;2023-11-21T04:50:57;1.80;99.90
17726;DHT22;8983;53.156;17.960;2023-11-21T04:53:26;1.80;99.90
17726;DHT22;8983;53.156;17.960;2023-11-21T04:55:54;1.80;99.90
17726;DHT22;8983;53.156;17.960;2023-11-21T04:58:22;1.80;99.90
17726;DHT22;8983;53.156;17.960;2023-11-21T05:00:52;1.70;99.90
17726;DHT22;8983;53.156;17.960;2023-11-21T05:03:20;1.80;99.90
17726;DHT22;8983;53.156;17.960;2023-11-21T05:05:51;1.80;99.90
17726;DHT22;8983;53.156;17.960;2023-11-21T05:08:19;1.80;99.90
17726;DHT22;8983;53.156;17.960;2023-11-21T05:10:48;1.80;99.90
17726;DHT22;8983;53.156;17.960;2023-11-21T05:13:18;1.80;99.90
17726;DHT22;8983;53.156;17.960;2023-11-21T05:15:46;1.80;99.90
17726;DHT22;8983;53.156;17.960;2023-11-21T05:18:16;1.80;99.90
17726;DHT22;8983;53.156;17.960;2023-11-21T05:20:44;1.90;99.90
17726;DHT22;8983;53.156;17.960;2023-11-21T05:23:14;1.80;99.90
17726;DHT22;8983;53.156;17.960;2023-11-21T05:25:42;1.80;99.90
17726;DHT22;8983;53.156;17.960;2023-11-21T05:28:10;1.80;99.90
17726;DHT22;8983;53.156;17.960;2023-11-21T05:30:38;2.00;99.90
17726;DHT22;8983;53.156;17.960;2023-11-21T05:33:07;1.80;99.90
17726;DHT22;8983;53.156;17.960;2023-11-21T05:35:36;1.80;99.90
17726;DHT22;8983;53.156;17.960;2023-11-21T05:38:05;1.80;99.90
17726;DHT22;8983;53.156;17.960;2023-11-21T05:40:33;1.80;99.90
17726;DHT22;8983;53.156;17.960;2023-11-21T05:43:01;1.80;99.90
17726;DHT22;8983;53.156;17.960;2023-11-21T05:45:29;1.80;99.90
17726;DHT22;8983;53.156;17.960;2023-11-21T05:47:58;2.00;99.90
17726;DHT22;8983;53.156;17.960;2023-11-21T05:50:26;1.80;99.90
17726;DHT22;8983;53.156;17.960;2023-11-21T05:52:56;1.80;99.90
17726;DHT22;8983;53.156;17.960;2023-11-21T05:55:26;1.80;99.90
17726;DHT22;8983;53.156;17.960;2023-11-21T05:57:55;1.80;99.90
17726;DHT22;8983;53.156;17.960;2023-11-21T06:00:23;1.80;99.90
17726;DHT22;8983;53.156;17.960;2023-11-21T06:02:53;1.80;99.90
17726;DHT22;8983;53.156;17.960;2023-11-21T06:05:23;1.80;99.90
17726;DHT22;8983;53.156;17.960;2023-11-21T06:07:53;1.80;99.90
17726;DHT22;8983;53.156;17.960;2023-11-21T06:10:24;1.90;99.90
17726;DHT22;8983;53.156;17.960;2023-11-21T06:12:52;1.70;99.90
17726;DHT22;8983;53.156;17.960;2023-11-21T06:15:21;1.70;99.90
17726;DHT22;8983;53.156;17.960;2023-11-21T06:17:51;1.70;99.90
17726;DHT22;8983;53.156;17.960;2023-11-21T06:20:21;1.80;99.90
17726;DHT22;8983;53.156;17.960;2023-11-21T06:22:50;1.70;99.90
17726;DHT22;8983;53.156;17.960;2023-11-21T06:25:19;1.70;99.90
17726;DHT22;8983;53.156;17.960;2023-11-21T06:27:50;1.70;99.90
17726;DHT22;8983;53.156;17.960;2023-11-21T06:30:20;1.70;99.90
17726;DHT22;8983;53.156;17.960;2023-11-21T06:32:50;1.70;99.90
17726;DHT22;8983;53.156;17.960;2023-11-21T06:35:20;1.70;99.90
17726;DHT22;8983;53.156;17.960;2023-11-21T06:37:48;1.70;99.90
17726;DHT22;8983;53.156;17.960;2023-11-21T06:40:18;1.70;99.90
17726;DHT22;8983;53.156;17.960;2023-11-21T06:42:49;1.70;99.90
17726;DHT22;8983;53.156;17.960;2023-11-21T06:45:18;1.90;99.90
17726;DHT22;8983;53.156;17.960;2023-11-21T06:47:47;1.70;99.90
17726;DHT22;8983;53.156;17.960;2023-11-21T06:50:16;1.70;99.90
17726;DHT22;8983;53.156;17.960;2023-11-21T06:52:44;1.70;99.90
17726;DHT22;8983;53.156;17.960;2023-11-21T06:55:13;1.70;99.90
17726;DHT22;8983;53.156;17.960;2023-11-21T06:57:43;1.70;99.90
17726;DHT22;8983;53.156;17.960;2023-11-21T07:00:15;1.70;99.90
17726;DHT22;8983;53.156;17.960;2023-11-21T07:02:45;1.70;99.90
17726;DHT22;8983;53.156;17.960;2023-11-21T07:05:13;1.70;99.90
17726;DHT22;8983;53.156;17.960;2023-11-21T07:07:42;1.70;99.90
17726;DHT22;8983;53.156;17.960;2023-11-21T07:10:10;1.80;99.90
17726;DHT22;8983;53.156;17.960;2023-11-21T07:12:39;1.80;99.90
17726;DHT22;8983;53.156;17.960;2023-11-21T07:15:08;1.80;99.90
17726;DHT22;8983;53.156;17.960;2023-11-21T07:17:38;1.80;99.90
17726;DHT22;8983;53.156;17.960;2023-11-21T07:20:08;1.80;99.90
17726;DHT22;8983;53.156;17.960;2023-11-21T07:22:38;1.80;99.90
17726;DHT22;8983;53.156;17.960;2023-11-21T07:25:07;1.80;99.90
17726;DHT22;8983;53.156;17.960;2023-11-21T07:27:37;1.80;99.90
17726;DHT22;8983;53.156;17.960;2023-11-21T07:30:06;1.80;99.90
17726;DHT22;8983;53.156;17.960;2023-11-21T07:32:38;1.80;99.90
17726;DHT22;8983;53.156;17.960;2023-11-21T07:35:08;1.80;99.90
17726;DHT22;8983;53.156;17.960;2023-11-21T07:37:37;1.70;99.90
17726;DHT22;8983;53.156;17.960;2023-11-21T07:40:06;1.70;99.90
17726;DHT22;8983;53.156;17.960;2023-11-21T07:42:36;1.70;99.90
17726;DHT22;8983;53.156;17.960;2023-11-21T07:45:05;1.70;99.90
17726;DHT22;8983;53.156;17.960;2023-11-21T07:47:35;1.70;99.90
17726;DHT22;8983;53.156;17.960;2023-11-21T07:50:06;1.80;99.90
17726;DHT22;8983;53.156;17.960;2023-11-21T07:52:35;1.80;99.90
17726;DHT22;8983;53.156;17.960;2023-11-21T07:55:04;1.80;99.90
17726;DHT22;8983;53.156;17.960;2023-11-21T07:57:32;1.90;99.90
17726;DHT22;8983;53.156;17.960;2023-11-21T08:00:00;1.90;99.90
17726;DHT22;8983;53.156;17.960;2023-11-21T08:02:28;1.90;99.90
17726;DHT22;8983;53.156;17.960;2023-11-21T08:04:56;1.90;99.90
17726;DHT22;8983;53.156;17.960;2023-11-21T08:07:27;2.00;99.90
17726;DHT22;8983;53.156;17.960;2023-11-21T08:09:55;2.00;99.90
17726;DHT22;8983;53.156;17.960;2023-11-21T08:12:23;2.00;99.90
17726;DHT22;8983;53.156;17.960;2023-11-21T08:14:51;2.30;99.90
17726;DHT22;8983;53.156;17.960;2023-11-21T08:17:19;2.20;99.90
17726;DHT22;8983;53.156;17.960;2023-11-21T08:19:48;2.10;99.90
17726;DHT22;8983;53.156;17.960;2023-11-21T08:22:18;2.10;99.90
17726;DHT22;8983;53.156;17.960;2023-11-21T08:24:48;2.10;99.90
17726;DHT22;8983;53.156;17.960;2023-11-21T08:27:17;2.10;99.90
17726;DHT22;8983;53.156;17.960;2023-11-21T08:29:45;2.10;99.90
17726;DHT22;8983;53.156;17.960;2023-11-21T08:32:13;2.10;99.90
17726;DHT22;8983;53.156;17.960;2023-11-21T08:34:41;2.10;99.90
17726;DHT22;8983;53.156;17.960;2023-11-21T08:37:11;2.20;99.90
17726;DHT22;8983;53.156;17.960;2023-11-21T08:39:43;2.20;99.90
17726;DHT22;8983;53.156;17.960;2023-11-21T08:42:12;2.20;99.90
17726;DHT22;8983;53.156;17.960;2023-11-21T08:44:40;2.30;99.90
17726;DHT22;8983;53.156;17.960;2023-11-21T08:47:09;2.40;99.90
17726;DHT22;8983;53.156;17.960;2023-11-21T08:49:37;2.40;99.90
17726;DHT22;8983;53.156;17.960;2023-11-21T08:52:05;2.50;99.90
17726;DHT22;8983;53.156;17.960;2023-11-21T08:54:33;2.60;99.90
17726;DHT22;8983;53.156;17.960;2023-11-21T08:57:03;2.70;99.90
17726;DHT22;8983;53.156;17.960;2023-11-21T08:59:33;2.70;99.90
17726;DHT22;8983;53.156;17.960;2023-11-21T09:02:01;2.70;99.90
17726;DHT22;8983;53.156;17.960;2023-11-21T09:04:29;2.70;99.90
17726;DHT22;8983;53.156;17.960;2023-11-21T09:06:57;2.70;99.90
17726;DHT22;8983;53.156;17.960;2023-11-21T09:09:27;2.70;99.90
17726;DHT22;8983;53.156;17.960;2023-11-21T09:11:56;2.70;99.90
17726;DHT22;8983;53.156;17.960;2023-11-21T09:14:24;2.70;99.90
17726;DHT22;8983;53.156;17.960;2023-11-21T09:16:54;2.70;99.90
17726;DHT22;8983;53.156;17.960;2023-11-21T09:19:23;2.70;99.90
17726;DHT22;8983;53.156;17.960;2023-11-21T09:21:51;2.70;99.90
17726;DHT22;8983;53.156;17.960;2023-11-21T09:24:20;2.70;99.90
17726;DHT22;8983;53.156;17.960;2023-11-21T09:26:48;2.60;99.90
17726;DHT22;8983;53.156;17.960;2023-11-21T09:29:16;2.70;99.90
17726;DHT22;8983;53.156;17.960;2023-11-21T09:31:45;2.80;99.90
17726;DHT22;8983;53.156;17.960;2023-11-21T09:34:15;2.70;99.90
17726;DHT22;8983;53.156;17.960;2023-11-21T09:36:45;2.80;99.90
17726;DHT22;8983;53.156;17.960;2023-11-21T09:39:13;2.80;99.90
17726;DHT22;8983;53.156;17.960;2023-11-21T09:41:44;2.70;99.90
17726;DHT22;8983;53.156;17.960;2023-11-21T09:44:18;2.80;99.90
17726;DHT22;8983;53.156;17.960;2023-11-21T09:46:48;2.80;99.90
17726;DHT22;8983;53.156;17.960;2023-11-21T09:49:18;2.80;99.90
17726;DHT22;8983;53.156;17.960;2023-11-21T09:51:54;2.70;99.90
17726;DHT22;8983;53.156;17.960;2023-11-21T09:54:23;2.70;99.90
17726;DHT22;8983;53.156;17.960;2023-11-21T09:56:51;2.70;99.90
17726;DHT22;8983;53.156;17.960;2023-11-21T09:59:19;2.80;99.90
17726;DHT22;8983;53.156;17.960;2023-11-21T10:01:48;2.80;99.90
17726;DHT22;8983;53.156;17.960;2023-11-21T10:04:18;2.70;99.90
17726;DHT22;8983;53.156;17.960;2023-11-21T10:06:48;2.80;99.90
17726;DHT22;8983;53.156;17.960;2023-11-21T10:09:17;2.70;99.90
17726;DHT22;8983;53.156;17.960;2023-11-21T10:11:47;2.90;99.90
17726;DHT22;8983;53.156;17.960;2023-11-21T10:14:19;2.70;99.90
17726;DHT22;8983;53.156;17.960;2023-11-21T10:16:49;2.60;99.90
17726;DHT22;8983;53.156;17.960;2023-11-21T10:19:21;2.70;99.90
17726;DHT22;8983;53.156;17.960;2023-11-21T10:21:51;2.60;99.90
17726;DHT22;8983;53.156;17.960;2023-11-21T10:24:19;2.60;99.90
17726;DHT22;8983;53.156;17.960;2023-11-21T10:26:50;2.60;99.90
17726;DHT22;8983;53.156;17.960;2023-11-21T10:29:20;2.60;99.90
17726;DHT22;8983;53.156;17.960;2023-11-21T10:31:50;2.60;99.90
17726;DHT22;8983;53.156;17.960;2023-11-21T10:34:20;2.70;99.90
17726;DHT22;8983;53.156;17.960;2023-11-21T10:36:49;2.60;99.90
17726;DHT22;8983;53.156;17.960;2023-11-21T10:39:17;2.60;99.90
17726;DHT22;8983;53.156;17.960;2023-11-21T10:41:46;2.60;99.90
17726;DHT22;8983;53.156;17.960;2023-11-21T10:44:16;2.60;99.90
17726;DHT22;8983;53.156;17.960;2023-11-21T10:46:48;2.50;99.90
17726;DHT22;8983;53.156;17.960;2023-11-21T10:49:19;2.50;99.90
17726;DHT22;8983;53.156;17.960;2023-11-21T10:51:48;2.70;99.90
17726;DHT22;8983;53.156;17.960;2023-11-21T10:54:19;2.60;99.90
17726;DHT22;8983;53.156;17.960;2023-11-21T10:56:49;2.60;99.90
17726;DHT22;8983;53.156;17.960;2023-11-21T10:59:18;2.60;99.90
17726;DHT22;8983;53.156;17.960;2023-11-21T11:01:52;2.60;99.90
17726;DHT22;8983;53.156;17.960;2023-11-21T11:04:22;2.70;99.90
17726;DHT22;8983;53.156;17.960;2023-11-21T11:06:56;2.60;99.90
17726;DHT22;8983;53.156;17.960;2023-11-21T11:09:26;2.60;99.90
17726;DHT22;8983;53.156;17.960;2023-11-21T11:11:55;2.80;99.90
17726;DHT22;8983;53.156;17.960;2023-11-21T11:14:23;2.60;99.90
17726;DHT22;8983;53.156;17.960;2023-11-21T11:16:54;2.60;99.90
17726;DHT22;8983;53.156;17.960;2023-11-21T11:19:24;2.60;99.90
17726;DHT22;8983;53.156;17.960;2023-11-21T11:22:00;2.60;99.90
17726;DHT22;8983;53.156;17.960;2023-11-21T11:24:49;2.60;99.90
17726;DHT22;8983;53.156;17.960;2023-11-21T11:27:30;2.60;99.90
17726;DHT22;8983;53.156;17.960;2023-11-21T11:30:10;2.60;99.90
17726;DHT22;8983;53.156;17.960;2023-11-21T11:32:49;2.50;99.90
17726;DHT22;8983;53.156;17.960;2023-11-21T11:35:33;2.50;99.90
17726;DHT22;8983;53.156;17.960;2023-11-21T11:38:02;2.50;99.90
17726;DHT22;8983;53.156;17.960;2023-11-21T11:40:39;2.50;99.90
17726;DHT22;8983;53.156;17.960;2023-11-21T11:43:09;2.40;99.90
17726;DHT22;8983;53.156;17.960;2023-11-21T11:45:37;2.50;99.90
17726;DHT22;8983;53.156;17.960;2023-11-21T11:48:11;2.50;99.90
17726;DHT22;8983;53.156;17.960;2023-11-21T11:51:05;2.60;99.90
17726;DHT22;8983;53.156;17.960;2023-11-21T11:53:36;2.50;99.90
17726;DHT22;8983;53.156;17.960;2023-11-21T11:56:26;2.50;99.90
17726;DHT22;8983;53.156;17.960;2023-11-21T11:58:55;2.50;99.90
17726;DHT22;8983;53.156;17.960;2023-11-21T12:01:25;2.50;99.90
17726;DHT22;8983;53.156;17.960;2023-11-21T12:07:06;2.50;99.90
17726;DHT22;8983;53.156;17.960;2023-11-21T12:09:36;2.60;99.90
17726;DHT22;8983;53.156;17.960;2023-11-21T12:12:05;2.50;99.90
17726;DHT22;8983;53.156;17.960;2023-11-21T12:14:34;2.50;99.90
17726;DHT22;8983;53.156;17.960;2023-11-21T12:17:03;2.50;99.90
17726;DHT22;8983;53.156;17.960;2023-11-21T12:19:32;2.60;99.90
17726;DHT22;8983;53.156;17.960;2023-11-21T12:22:00;2.50;99.90
17726;DHT22;8983;53.156;17.960;2023-11-21T12:24:30;2.40;99.90
17726;DHT22;8983;53.156;17.960;2023-11-21T12:26:58;2.50;99.90
17726;DHT22;8983;53.156;17.960;2023-11-21T12:29:26;2.40;99.90
17726;DHT22;8983;53.156;17.960;2023-11-21T12:31:56;2.40;99.90
17726;DHT22;8983;53.156;17.960;2023-11-21T12:34:25;2.40;99.90
17726;DHT22;8983;53.156;17.960;2023-11-21T12:36:53;2.50;99.90
17726;DHT22;8983;53.156;17.960;2023-11-21T12:39:22;2.40;99.90
17726;DHT22;8983;53.156;17.960;2023-11-21T12:41:52;2.40;99.90
17726;DHT22;8983;53.156;17.960;2023-11-21T12:44:21;2.40;99.90
17726;DHT22;8983;53.156;17.960;2023-11-21T12:46:50;2.40;99.90
17726;DHT22;8983;53.156;17.960;2023-11-21T12:49:20;2.40;99.90
17726;DHT22;8983;53.156;17.960;2023-11-21T12:51:49;2.50;99.90
17726;DHT22;8983;53.156;17.960;2023-11-21T12:54:17;2.50;99.90
17726;DHT22;8983;53.156;17.960;2023-11-21T12:56:46;2.50;99.90
17726;DHT22;8983;53.156;17.960;2023-11-21T12:59:17;2.50;99.90
17726;DHT22;8983;53.156;17.960;2023-11-21T13:01:48;2.50;99.90
17726;DHT22;8983;53.156;17.960;2023-11-21T13:04:18;2.40;99.90
17726;DHT22;8983;53.156;17.960;2023-11-21T13:06:46;2.50;99.90
17726;DHT22;8983;53.156;17.960;2023-11-21T13:09:14;2.50;99.90
17726;DHT22;8983;53.156;17.960;2023-11-21T13:11:48;2.50;99.90
17726;DHT22;8983;53.156;17.960;2023-11-21T13:14:18;2.50;99.90
17726;DHT22;8983;53.156;17.960;2023-11-21T13:16:46;2.50;99.90
17726;DHT22;8983;53.156;17.960;2023-11-21T13:19:15;2.50;99.90
17726;DHT22;8983;53.156;17.960;2023-11-21T13:21:43;2.50;99.90
17726;DHT22;8983;53.156;17.960;2023-11-21T13:24:11;2.40;99.90
17726;DHT22;8983;53.156;17.960;2023-11-21T13:26:39;2.50;99.90
17726;DHT22;8983;53.156;17.960;2023-11-21T13:29:07;2.40;99.90
17726;DHT22;8983;53.156;17.960;2023-11-21T13:31:37;2.40;99.90
17726;DHT22;8983;53.156;17.960;2023-11-21T13:34:06;2.40;99.90
17726;DHT22;8983;53.156;17.960;2023-11-21T13:36:35;2.40;99.90
17726;DHT22;8983;53.156;17.960;2023-11-21T13:39:03;2.40;99.90
17726;DHT22;8983;53.156;17.960;2023-11-21T13:41:35;2.40;99.90
17726;DHT22;8983;53.156;17.960;2023-11-21T13:44:06;2.40;99.90
17726;DHT22;8983;53.156;17.960;2023-11-21T13:46:44;2.30;99.90
17726;DHT22;8983;53.156;17.960;2023-11-21T13:49:13;2.30;99.90
17726;DHT22;8983;53.156;17.960;2023-11-21T13:51:43;2.30;99.90
17726;DHT22;8983;53.156;17.960;2023-11-21T13:54:15;2.30;99.90
17726;DHT22;8983;53.156;17.960;2023-11-21T13:56:43;2.20;99.90
17726;DHT22;8983;53.156;17.960;2023-11-21T13:59:14;2.20;99.90
17726;DHT22;8983;53.156;17.960;2023-11-21T14:01:50;2.20;99.90
17726;DHT22;8983;53.156;17.960;2023-11-21T14:04:24;2.10;99.90
17726;DHT22;8983;53.156;17.960;2023-11-21T14:07:13;2.10;99.90
17726;DHT22;8983;53.156;17.960;2023-11-21T14:09:59;2.10;99.90
17726;DHT22;8983;53.156;17.960;2023-11-21T14:12:27;2.10;99.90
17726;DHT22;8983;53.156;17.960;2023-11-21T14:15:05;2.00;99.90
17726;DHT22;8983;53.156;17.960;2023-11-21T14:17:38;2.00;99.90
17726;DHT22;8983;53.156;17.960;2023-11-21T14:20:09;2.00;99.90
17726;DHT22;8983;53.156;17.960;2023-11-21T14:22:43;2.00;99.90
17726;DHT22;8983;53.156;17.960;2023-11-21T14:25:12;2.00;99.90
17726;DHT22;8983;53.156;17.960;2023-11-21T14:27:41;1.90;99.90
17726;DHT22;8983;53.156;17.960;2023-11-21T14:30:10;1.90;99.90
17726;DHT22;8983;53.156;17.960;2023-11-21T14:32:42;1.90;99.90
17726;DHT22;8983;53.156;17.960;2023-11-21T14:35:10;2.10;99.90
17726;DHT22;8983;53.156;17.960;2023-11-21T14:37:38;1.90;99.90
17726;DHT22;8983;53.156;17.960;2023-11-21T14:40:07;1.90;99.90
17726;DHT22;8983;53.156;17.960;2023-11-21T14:42:35;1.90;99.90
17726;DHT22;8983;53.156;17.960;2023-11-21T14:45:07;1.90;99.90
17726;DHT22;8983;53.156;17.960;2023-11-21T14:47:38;1.90;99.90
17726;DHT22;8983;53.156;17.960;2023-11-21T14:50:13;1.80;99.90
17726;DHT22;8983;53.156;17.960;2023-11-21T14:52:57;1.80;99.90
17726;DHT22;8983;53.156;17.960;2023-11-21T14:55:26;2.00;99.90
17726;DHT22;8983;53.156;17.960;2023-11-21T14:57:59;1.80;99.90
17726;DHT22;8983;53.156;17.960;2023-11-21T15:00:31;1.80;99.90
17726;DHT22;8983;53.156;17.960;2023-11-21T15:03:05;1.80;99.90
17726;DHT22;8983;53.156;17.960;2023-11-21T15:05:35;1.90;99.90
17726;DHT22;8983;53.156;17.960;2023-11-21T15:08:05;1.70;99.90
17726;DHT22;8983;53.156;17.960;2023-11-21T15:10:45;1.70;99.90
17726;DHT22;8983;53.156;17.960;2023-11-21T15:13:16;1.70;99.90
17726;DHT22;8983;53.156;17.960;2023-11-21T15:15:43;1.60;99.90
17726;DHT22;8983;53.156;17.960;2023-11-21T15:18:11;1.40;99.90
17726;DHT22;8983;53.156;17.960;2023-11-21T15:20:41;1.60;99.90
17726;DHT22;8983;53.156;17.960;2023-11-21T15:23:10;1.60;99.90
17726;DHT22;8983;53.156;17.960;2023-11-21T15:25:39;1.60;99.90
17726;DHT22;8983;53.156;17.960;2023-11-21T15:28:08;1.50;99.90
17726;DHT22;8983;53.156;17.960;2023-11-21T15:30:36;1.50;99.90
17726;DHT22;8983;53.156;17.960;2023-11-21T15:33:04;1.60;99.90
17726;DHT22;8983;53.156;17.960;2023-11-21T15:35:34;1.40;99.90
17726;DHT22;8983;53.156;17.960;2023-11-21T15:38:06;1.50;99.90
17726;DHT22;8983;53.156;17.960;2023-11-21T15:40:35;1.50;99.90
17726;DHT22;8983;53.156;17.960;2023-11-21T15:43:03;1.40;99.90
17726;DHT22;8983;53.156;17.960;2023-11-21T15:45:31;1.60;99.90
17726;DHT22;8983;53.156;17.960;2023-11-21T15:47:59;1.60;99.90
17726;DHT22;8983;53.156;17.960;2023-11-21T15:50:28;1.40;99.90
17726;DHT22;8983;53.156;17.960;2023-11-21T15:52:58;1.40;99.90
17726;DHT22;8983;53.156;17.960;2023-11-21T15:55:28;1.40;99.90
17726;DHT22;8983;53.156;17.960;2023-11-21T15:57:56;1.40;99.90
17726;DHT22;8983;53.156;17.960;2023-11-21T16:00:25;1.30;99.90
17726;DHT22;8983;53.156;17.960;2023-11-21T16:02:53;1.20;99.90